Time;durP1;ratioP1;P1;durP2;ratioP2;P2;SDS_P1;SDS_P2;PMS_P1;PMS_P2;Temp;Humidity;BMP_temperature;BMP_pressure;BME280_temperature;BME280_humidity;BME280_pressure;Samples;Min_cycle;Max_cycle;Signal;HPM_P1;HPM_P2
2022/06/09 00:00:20;;;;;;;6.05;3.38;;;;;;;18.83;100.00;97886.50;5092635;28;20089;-70
2022/06/09 00:03:12;;;;;;;5.82;3.67;;;;;;;18.64;100.00;97883.31;5092646;28;20058;-71
2022/06/09 00:05:57;;;;;;;8.00;3.50;;;;;;;18.40;100.00;97879.88;5095902;28;20055;-70
2022/06/09 00:08:49;;;;;;;5.82;3.90;;;;;;;18.40;100.00;97882.53;5084423;28;20044;-71
2022/06/09 00:11:37;;;;;;;9.85;3.58;;;;;;;18.21;100.00;97878.53;5099547;28;20383;-70
2022/06/09 00:14:23;;;;;;;4.18;3.28;;;;;;;18.19;100.00;97877.88;5093900;28;20040;-70
2022/06/09 00:17:08;;;;;;;5.07;3.60;;;;;;;18.13;100.00;97890.03;5092162;28;20044;-71
2022/06/09 00:19:53;;;;;;;3.85;2.83;;;;;;;18.09;100.00;97880.72;5076511;28;20040;-71
2022/06/09 00:22:39;;;;;;;4.47;3.35;;;;;;;18.10;100.00;97880.53;5090656;28;20039;-70
2022/06/09 00:25:24;;;;;;;5.07;3.28;;;;;;;18.18;100.00;97885.00;5092896;28;20178;-69
2022/06/09 00:28:08;;;;;;;5.82;3.30;;;;;;;18.32;100.00;97880.78;5097831;28;20471;-69
2022/06/09 00:30:53;;;;;;;3.67;2.90;;;;;;;18.39;100.00;97883.53;5110691;28;20042;-70
2022/06/09 00:33:38;;;;;;;3.60;2.72;;;;;;;18.57;100.00;97871.81;5101230;28;20077;-70
2022/06/09 00:36:23;;;;;;;3.58;2.58;;;;;;;18.74;100.00;97867.16;5096652;28;20039;-71
2022/06/09 00:39:08;;;;;;;4.43;2.60;;;;;;;18.77;100.00;97868.66;5099246;28;20413;-71
2022/06/09 00:41:53;;;;;;;4.18;2.90;;;;;;;18.80;100.00;97870.94;5109501;28;20492;-71
2022/06/09 00:44:38;;;;;;;3.90;2.50;;;;;;;18.72;100.00;97874.47;5093541;28;20040;-72
2022/06/09 00:47:28;;;;;;;3.33;2.47;;;;;;;18.73;100.00;97877.94;5097700;28;20118;-72
2022/06/09 00:50:16;;;;;;;3.78;2.67;;;;;;;18.91;100.00;97873.16;5094222;28;20085;-72
2022/06/09 00:53:06;;;;;;;5.85;2.63;;;;;;;18.59;100.00;97873.25;5101884;28;20039;-72
2022/06/09 00:55:53;;;;;;;3.37;2.40;;;;;;;18.38;100.00;97865.16;5110904;28;20058;-72
2022/06/09 00:58:42;;;;;;;3.65;2.83;;;;;;;18.36;100.00;97859.22;5097446;28;20289;-71
2022/06/09 01:01:28;;;;;;;5.32;3.13;;;;;;;18.09;100.00;97870.13;5095545;28;20046;-71
2022/06/09 01:04:17;;;;;;;5.18;3.35;;;;;;;18.04;100.00;97869.81;5101356;28;20061;-72
2022/06/09 01:07:10;;;;;;;5.30;2.90;;;;;;;18.04;100.00;97875.13;5092316;28;20093;-71
2022/06/09 01:09:55;;;;;;;12.05;6.63;;;;;;;18.14;100.00;97862.50;5092002;28;20039;-72
2022/06/09 01:12:43;;;;;;;4.70;3.00;;;;;;;18.26;100.00;97868.22;5095459;28;20198;-71
2022/06/09 01:15:49;;;;;;;4.00;2.97;;;;;;;18.00;100.00;97871.19;5094184;28;20118;-71
2022/06/09 01:19:23;;;;;;;3.92;2.50;;;;;;;18.08;100.00;97877.25;5109193;28;20032;-72
2022/06/09 01:22:44;;;;;;;3.42;2.42;;;;;;;18.24;100.00;97878.19;5091596;28;20077;-72
2022/06/09 01:26:06;;;;;;;3.70;2.60;;;;;;;18.44;100.00;97867.91;5095503;28;20043;-71
2022/06/09 01:29:16;;;;;;;3.30;2.58;;;;;;;18.36;100.00;97875.13;5102385;28;20043;-71
2022/06/09 01:32:11;;;;;;;4.05;2.65;;;;;;;18.34;100.00;97864.69;5111223;28;20494;-72
2022/06/09 01:35:27;;;;;;;4.25;3.10;;;;;;;18.30;100.00;97880.13;5102168;28;20479;-72
2022/06/09 01:38:12;;;;;;;4.07;2.75;;;;;;;17.72;100.00;97881.25;5114864;28;20505;-72
2022/06/09 01:40:57;;;;;;;3.90;2.33;;;;;;;17.63;100.00;97884.13;5098578;28;20044;-72
2022/06/09 01:43:46;;;;;;;7.15;2.67;;;;;;;17.76;100.00;97887.03;5087358;28;20573;-71
2022/06/09 01:46:36;;;;;;;4.90;2.42;;;;;;;17.71;100.00;97876.97;5091218;28;20162;-71
2022/06/09 01:49:28;;;;;;;3.72;2.38;;;;;;;17.91;100.00;97868.59;5113751;28;20144;-73
2022/06/09 01:52:13;;;;;;;6.18;3.40;;;;;;;17.88;100.00;97874.22;5097856;28;20115;-73
2022/06/09 01:55:02;;;;;;;5.05;3.10;;;;;;;17.76;100.00;97863.19;5096948;28;20028;-71
2022/06/09 01:57:51;;;;;;;5.35;3.40;;;;;;;17.87;100.00;97877.06;5097404;28;20111;-72
2022/06/09 02:00:37;;;;;;;4.15;2.53;;;;;;;17.78;100.00;97873.63;5097845;27;20063;-71
2022/06/09 02:03:28;;;;;;;4.63;2.80;;;;;;;17.56;100.00;97868.09;5125977;27;20040;-72
2022/06/09 02:06:14;;;;;;;2.85;2.33;;;;;;;17.24;100.00;97871.53;5097489;28;20059;-71
2022/06/09 02:09:00;;;;;;;4.72;2.72;;;;;;;17.45;100.00;97866.66;5097748;28;20028;-71
2022/06/09 02:11:51;;;;;;;3.22;2.33;;;;;;;17.70;100.00;97864.72;5097657;28;20123;-74
2022/06/09 02:14:37;;;;;;;3.20;2.22;;;;;;;17.94;100.00;97862.94;5114206;28;20039;-73
2022/06/09 02:17:22;;;;;;;5.30;2.40;;;;;;;17.92;100.00;97864.91;5107032;28;20118;-73
2022/06/09 02:20:08;;;;;;;3.55;2.50;;;;;;;17.98;100.00;97871.38;5109697;28;20046;-72
2022/06/09 02:22:53;;;;;;;5.53;2.50;;;;;;;18.18;100.00;97870.94;5102733;28;20441;-72
2022/06/09 02:25:39;;;;;;;3.00;2.10;;;;;;;18.14;100.00;97867.81;5104795;28;20064;-73
2022/06/09 02:28:23;;;;;;;4.35;2.40;;;;;;;17.90;100.00;97874.06;5092977;28;20047;-73
2022/06/09 02:31:09;;;;;;;3.67;2.25;;;;;;;17.27;100.00;97870.34;5101574;28;20528;-73
2022/06/09 02:33:55;;;;;;;3.47;2.13;;;;;;;16.87;100.00;97871.06;5108143;28;20173;-72
2022/06/09 02:36:41;;;;;;;3.08;2.00;;;;;;;16.93;100.00;97863.47;5107153;28;20367;-73
2022/06/09 02:39:25;;;;;;;3.22;1.88;;;;;;;17.22;100.00;97872.69;5106136;28;20478;-73
2022/06/09 02:42:10;;;;;;;2.78;2.15;;;;;;;17.58;100.00;97872.22;5092519;28;20054;-70
2022/06/09 02:44:55;;;;;;;3.03;2.10;;;;;;;17.85;100.00;97875.38;5102528;28;20066;-73
2022/06/09 02:47:41;;;;;;;3.65;2.00;;;;;;;18.03;100.00;97882.25;5101666;28;20044;-72
2022/06/09 02:50:26;;;;;;;5.07;2.00;;;;;;;18.08;100.00;97881.72;5100721;28;20040;-73
2022/06/09 02:53:11;;;;;;;5.25;3.45;;;;;;;17.84;100.00;97878.22;5094047;28;20419;-72
2022/06/09 02:55:56;;;;;;;3.15;2.38;;;;;;;17.74;100.00;97878.44;5121463;27;20056;-72
2022/06/09 02:58:41;;;;;;;5.10;2.90;;;;;;;17.65;100.00;97884.75;5094037;28;20047;-72
2022/06/09 03:01:29;;;;;;;2.88;2.20;;;;;;;17.61;100.00;97885.13;5096320;28;20051;-72
2022/06/09 03:04:13;;;;;;;3.33;2.47;;;;;;;17.57;100.00;97889.13;5101689;28;20376;-73
2022/06/09 03:06:58;;;;;;;3.78;2.58;;;;;;;17.52;100.00;97890.63;5108659;28;20059;-71
2022/06/09 03:09:44;;;;;;;3.25;2.33;;;;;;;17.61;100.00;97886.94;5077907;28;20126;-71
2022/06/09 03:12:30;;;;;;;3.10;1.85;;;;;;;17.79;100.00;97891.16;5097190;28;20044;-71
2022/06/09 03:15:19;;;;;;;7.30;3.50;;;;;;;18.13;100.00;97883.88;5098372;28;20390;-71
2022/06/09 03:18:04;;;;;;;5.78;3.55;;;;;;;18.26;100.00;97886.78;5103186;28;20040;-73
2022/06/09 03:20:49;;;;;;;6.05;2.83;;;;;;;17.97;100.00;97885.59;5099580;28;20036;-72
2022/06/09 03:23:33;;;;;;;5.10;3.20;;;;;;;17.94;100.00;97889.41;5109264;28;20087;-73
2022/06/09 03:26:18;;;;;;;6.88;4.07;;;;;;;17.94;100.00;97886.78;5112327;28;20470;-72
2022/06/09 03:29:04;;;;;;;7.90;4.47;;;;;;;18.10;100.00;97891.16;5097531;28;20051;-71
2022/06/09 03:31:49;;;;;;;6.47;4.45;;;;;;;18.31;100.00;97900.31;5101789;28;20471;-73
2022/06/09 03:34:35;;;;;;;7.63;4.65;;;;;;;17.92;100.00;97896.72;5134588;27;20548;-73
2022/06/09 03:37:20;;;;;;;10.05;5.75;;;;;;;17.86;100.00;97897.41;5092857;28;20070;-72
2022/06/09 03:40:07;;;;;;;4.97;3.47;;;;;;;18.02;100.00;97908.94;5098032;28;20036;-72
2022/06/09 03:42:51;;;;;;;6.60;4.18;;;;;;;18.22;100.00;97910.16;5097977;28;20130;-72
2022/06/09 03:45:37;;;;;;;8.65;5.40;;;;;;;17.55;100.00;97906.16;5112773;28;20059;-72
2022/06/09 03:48:22;;;;;;;5.43;3.65;;;;;;;17.64;100.00;97905.16;5102075;28;20088;-73
2022/06/09 03:51:07;;;;;;;9.52;5.85;;;;;;;17.54;100.00;97907.16;5093714;28;20035;-72
2022/06/09 03:53:53;;;;;;;5.60;3.80;;;;;;;16.92;100.00;97912.06;5096298;28;20067;-72
2022/06/09 03:56:39;;;;;;;5.80;4.00;;;;;;;16.48;100.00;97925.44;5095189;28;20478;-72
2022/06/09 03:59:24;;;;;;;5.75;3.83;;;;;;;16.59;100.00;97926.13;5096801;28;20111;-73
2022/06/09 04:02:10;;;;;;;5.05;3.38;;;;;;;16.59;100.00;97926.13;5095053;28;20112;-72
2022/06/09 04:04:55;;;;;;;5.15;3.30;;;;;;;16.83;100.00;97927.94;5099176;28;20118;-72
2022/06/09 04:07:41;;;;;;;5.22;3.30;;;;;;;16.99;100.00;97935.03;5110841;28;20044;-74
2022/06/09 04:10:29;;;;;;;5.47;2.88;;;;;;;16.95;100.00;97939.03;5085924;28;20551;-73
2022/06/09 04:13:15;;;;;;;5.57;2.60;;;;;;;16.26;100.00;97932.19;5111955;28;20486;-74
2022/06/09 04:16:00;;;;;;;4.15;3.05;;;;;;;16.38;100.00;97935.38;5109121;28;20107;-74
2022/06/09 04:18:45;;;;;;;4.55;2.50;;;;;;;16.43;100.00;97938.34;5078552;28;20032;-73
2022/06/09 04:21:32;;;;;;;4.20;2.58;;;;;;;16.26;100.00;97929.56;5086216;28;20046;-74
2022/06/09 04:24:18;;;;;;;3.40;2.30;;;;;;;16.34;100.00;97939.31;5095190;28;20043;-77
2022/06/09 04:27:04;;;;;;;3.95;2.70;;;;;;;16.51;100.00;97945.47;5096257;28;20027;-72
2022/06/09 04:29:49;;;;;;;4.03;2.30;;;;;;;16.77;100.00;97941.84;5111627;28;20390;-73
2022/06/09 04:32:35;;;;;;;3.65;2.42;;;;;;;16.36;100.00;97945.28;5100029;28;20039;-74
2022/06/09 04:35:20;;;;;;;3.30;1.70;;;;;;;15.82;100.00;97946.41;5109320;28;20155;-72
2022/06/09 04:38:07;;;;;;;2.40;1.25;;;;;;;15.73;100.00;97948.19;5110669;28;20106;-73
2022/06/09 04:40:51;;;;;;;3.83;1.50;;;;;;;15.55;100.00;97945.63;5112048;28;20028;-74
2022/06/09 04:43:44;;;;;;;3.88;1.60;;;;;;;15.38;100.00;97949.03;5091644;28;20123;-73
2022/06/09 04:46:31;;;;;;;2.00;1.70;;;;;;;15.36;100.00;97953.63;5111927;28;20378;-73
2022/06/09 04:49:16;;;;;;;2.72;1.25;;;;;;;15.30;100.00;97950.78;5080212;28;20128;-72
2022/06/09 04:52:03;;;;;;;1.58;1.05;;;;;;;15.17;100.00;97956.47;5102439;28;20044;-73
2022/06/09 04:54:48;;;;;;;2.22;1.10;;;;;;;15.00;100.00;97965.09;5076545;28;20063;-72
2022/06/09 04:57:33;;;;;;;3.05;1.05;;;;;;;14.91;100.00;97976.56;5119953;27;20372;-72
2022/06/09 05:00:19;;;;;;;2.55;1.23;;;;;;;14.94;100.00;97970.16;5099450;28;20035;-72
2022/06/09 05:03:04;;;;;;;2.35;1.40;;;;;;;14.90;100.00;97969.66;5054109;28;20399;-73
2022/06/09 05:05:50;;;;;;;3.05;1.10;;;;;;;14.88;100.00;97972.41;5111216;28;20385;-72
2022/06/09 05:08:37;;;;;;;1.95;1.20;;;;;;;14.87;100.00;97970.75;5098306;28;20048;-72
2022/06/09 05:11:23;;;;;;;2.47;0.98;;;;;;;14.81;100.00;97975.81;5109339;28;20538;-72
2022/06/09 05:14:07;;;;;;;2.60;0.95;;;;;;;14.76;100.00;97968.34;5080059;28;20028;-72
2022/06/09 05:16:52;;;;;;;3.50;1.05;;;;;;;14.71;100.00;97966.16;5092534;28;20194;-72
2022/06/09 05:19:37;;;;;;;2.22;1.00;;;;;;;14.72;100.00;97959.88;5102216;28;20046;-73
2022/06/09 05:22:22;;;;;;;2.28;1.30;;;;;;;14.73;100.00;97966.00;5126499;27;20039;-72
2022/06/09 05:25:08;;;;;;;2.50;1.35;;;;;;;14.62;100.00;97970.50;5117113;28;20032;-73
2022/06/09 05:27:54;;;;;;;2.20;1.10;;;;;;;14.73;100.00;97976.53;5112169;28;20043;-73
2022/06/09 05:30:40;;;;;;;1.77;1.15;;;;;;;14.71;100.00;97984.59;5109672;28;20031;-72
2022/06/09 05:33:26;;;;;;;1.75;0.90;;;;;;;14.68;100.00;97995.44;5099142;28;20065;-71
2022/06/09 05:36:11;;;;;;;2.35;1.25;;;;;;;14.56;100.00;97999.31;5098969;28;20042;-74
2022/06/09 05:45:04;;;;;;;2.58;1.25;;;;;;;14.83;100.00;98005.50;5091134;28;20406;-72
2022/06/09 05:47:49;;;;;;;2.60;1.10;;;;;;;14.73;100.00;98009.00;5091095;28;20067;-73
2022/06/09 05:50:36;;;;;;;2.33;1.00;;;;;;;14.68;100.00;98007.78;5097874;28;20052;-72
2022/06/09 05:53:21;;;;;;;2.35;1.15;;;;;;;14.48;100.00;98005.28;5090901;28;20046;-72
2022/06/09 05:56:07;;;;;;;3.55;1.52;;;;;;;14.57;100.00;98008.84;5091994;28;20055;-74
2022/06/09 05:58:52;;;;;;;5.30;1.80;;;;;;;14.54;100.00;98007.34;5106943;28;20089;-73
2022/06/09 06:01:38;;;;;;;1.70;0.90;;;;;;;14.52;100.00;98004.03;5093671;28;20036;-73
2022/06/09 06:04:22;;;;;;;2.13;1.27;;;;;;;14.57;100.00;97999.16;5093488;28;20041;-74
2022/06/09 06:07:07;;;;;;;3.05;1.10;;;;;;;14.47;100.00;97995.75;5102445;28;20043;-73
2022/06/09 06:09:52;;;;;;;5.00;1.25;;;;;;;14.46;100.00;97999.38;5108693;28;20043;-73
2022/06/09 06:12:37;;;;;;;2.08;1.38;;;;;;;14.44;100.00;98001.31;5087770;28;20467;-73
2022/06/09 06:15:27;;;;;;;2.50;1.48;;;;;;;14.36;100.00;98002.06;5098331;28;20054;-67
2022/06/09 06:18:12;;;;;;;9.70;1.67;;;;;;;14.37;100.00;97999.28;5097390;28;20031;-69
2022/06/09 06:20:56;;;;;;;2.17;1.30;;;;;;;14.31;100.00;98004.31;5106164;28;20634;-68
2022/06/09 06:23:42;;;;;;;2.38;1.25;;;;;;;14.44;100.00;97998.69;5133516;27;20114;-77
2022/06/09 06:26:27;;;;;;;5.90;1.38;;;;;;;14.25;100.00;98000.44;5107693;28;20036;-73
2022/06/09 06:29:16;;;;;;;2.30;1.10;;;;;;;14.39;100.00;97997.31;5109607;28;20036;-71
2022/06/09 06:32:02;;;;;;;3.03;1.38;;;;;;;15.17;100.00;98002.16;5114560;28;20047;-67
2022/06/09 06:34:47;;;;;;;2.00;1.27;;;;;;;15.93;100.00;97991.00;5107662;27;20036;-60
2022/06/09 06:37:33;;;;;;;1.58;1.00;;;;;;;16.41;100.00;97987.91;5099197;28;20137;-72
2022/06/09 06:40:19;;;;;;;2.50;1.13;;;;;;;15.17;100.00;97993.41;5107376;28;20097;-71
2022/06/09 06:43:05;;;;;;;2.00;1.15;;;;;;;14.62;100.00;97991.59;5121866;27;20471;-75
2022/06/09 06:45:51;;;;;;;2.53;0.80;;;;;;;15.51;100.00;98000.53;5094636;28;20404;-73
2022/06/09 06:48:36;;;;;;;3.03;1.02;;;;;;;15.92;100.00;98005.22;5098663;28;20032;-74
2022/06/09 06:51:22;;;;;;;1.20;0.90;;;;;;;15.73;100.00;98020.28;5095014;28;20034;-73
2022/06/09 06:54:07;;;;;;;4.32;0.90;;;;;;;16.32;100.00;98020.59;5080134;28;20731;-73
2022/06/09 06:56:52;;;;;;;2.15;0.80;;;;;;;16.28;100.00;98021.88;5102068;28;20217;-73
2022/06/09 06:59:38;;;;;;;1.38;0.93;;;;;;;15.20;100.00;98019.47;5098783;28;20043;-78
2022/06/09 07:02:26;;;;;;;3.80;0.80;;;;;;;16.05;100.00;98025.09;5106961;28;20431;-73
2022/06/09 07:05:13;;;;;;;2.22;0.95;;;;;;;15.95;100.00;98033.94;5110284;28;20073;-74
2022/06/09 07:07:58;;;;;;;1.30;0.73;;;;;;;15.82;100.00;98033.53;5098517;28;20489;-77
2022/06/09 07:10:44;;;;;;;3.05;0.98;;;;;;;16.31;100.00;98034.78;5094756;28;20085;-72
2022/06/09 07:13:29;;;;;;;1.10;0.80;;;;;;;16.09;100.00;98039.66;5105137;28;20092;-74
2022/06/09 07:16:14;;;;;;;1.20;0.73;;;;;;;16.27;100.00;98022.88;5100069;28;20032;-72
2022/06/09 07:18:59;;;;;;;2.53;0.70;;;;;;;17.11;100.00;98036.09;5093056;28;20040;-76
2022/06/09 07:21:44;;;;;;;4.18;1.23;;;;;;;17.29;100.00;98035.09;5081373;28;20036;-78
2022/06/09 07:24:30;;;;;;;2.85;0.90;;;;;;;17.53;100.00;98035.25;5075489;28;20087;-71
2022/06/09 07:27:15;;;;;;;3.55;1.00;;;;;;;17.80;100.00;98038.50;5118745;27;20040;-73
2022/06/09 07:30:04;;;;;;;2.35;0.90;;;;;;;17.23;100.00;98041.06;5100253;28;20062;-75
2022/06/09 07:32:50;;;;;;;3.40;1.02;;;;;;;17.60;100.00;98046.81;5102956;28;20106;-76
2022/06/09 07:35:38;;;;;;;2.15;0.70;;;;;;;17.60;100.00;98047.66;5104477;28;20063;-75
2022/06/09 07:38:24;;;;;;;2.70;0.82;;;;;;;17.32;100.00;98053.31;5101812;28;20024;-77
2022/06/09 07:41:09;;;;;;;1.17;0.68;;;;;;;17.98;100.00;98060.28;5096989;28;20374;-77
2022/06/09 07:43:56;;;;;;;1.58;0.77;;;;;;;17.47;97.86;98072.00;5078562;28;20044;-74
2022/06/09 07:46:41;;;;;;;1.67;0.75;;;;;;;16.89;100.00;98069.31;5088605;28;20048;-74
2022/06/09 07:49:26;;;;;;;1.20;0.90;;;;;;;16.35;100.00;98075.78;5106698;28;20046;-76
2022/06/09 07:52:11;;;;;;;3.72;0.80;;;;;;;16.96;100.00;98072.94;5086666;28;20035;-71
2022/06/09 07:54:56;;;;;;;4.57;1.13;;;;;;;16.94;100.00;98072.25;5097029;28;20038;-74
2022/06/09 07:57:44;;;;;;;6.07;0.70;;;;;;;16.79;100.00;98069.44;5098056;28;20122;-69
2022/06/09 08:00:29;;;;;;;3.85;0.90;;;;;;;17.13;100.00;98072.16;5104076;28;20482;-72
2022/06/09 08:03:22;;;;;;;3.33;0.82;;;;;;;16.93;100.00;98069.78;5093769;28;20067;-72
2022/06/09 08:06:09;;;;;;;4.13;0.75;;;;;;;17.44;100.00;98064.38;5077293;28;20059;-73
2022/06/09 08:08:57;;;;;;;1.75;0.77;;;;;;;18.16;98.27;98082.31;5087340;28;20119;-72
2022/06/09 08:11:42;;;;;;;2.35;0.70;;;;;;;17.96;100.00;98077.34;5096992;28;20048;-73
2022/06/09 08:14:26;;;;;;;2.03;0.80;;;;;;;17.87;100.00;98067.78;5079285;28;20040;-73
2022/06/09 08:17:13;;;;;;;2.33;1.00;;;;;;;18.70;96.17;98080.72;5095985;28;20115;-72
2022/06/09 08:20:05;;;;;;;4.47;0.75;;;;;;;18.90;94.11;98072.31;5076858;28;20036;-73
2022/06/09 08:22:58;;;;;;;1.15;0.55;;;;;;;18.42;97.30;98087.34;5094696;28;20035;-72
2022/06/09 08:25:45;;;;;;;2.47;0.85;;;;;;;18.46;94.63;98075.38;5111503;28;20472;-71
2022/06/09 08:28:30;;;;;;;2.55;0.57;;;;;;;18.43;97.12;98083.69;5104352;28;20048;-73
2022/06/09 08:31:17;;;;;;;3.70;0.77;;;;;;;17.95;95.71;98094.25;5099666;28;20036;-73
2022/06/09 08:34:09;;;;;;;2.67;0.98;;;;;;;17.79;100.00;98081.88;5099756;28;20044;-72
2022/06/09 08:36:54;;;;;;;1.58;0.45;;;;;;;17.98;97.04;98092.06;5104774;28;20121;-72
2022/06/09 08:39:41;;;;;;;2.35;0.80;;;;;;;17.47;99.97;98089.69;5091701;28;20035;-72
2022/06/09 08:42:48;;;;;;;1.60;0.60;;;;;;;17.01;100.00;98096.25;5091517;28;20110;-72
2022/06/09 08:45:40;;;;;;;1.02;0.70;;;;;;;16.97;100.00;98095.75;5106050;28;20039;-71
2022/06/09 08:48:39;;;;;;;2.67;0.73;;;;;;;16.81;100.00;98111.59;5091846;28;20040;-71
2022/06/09 08:51:45;;;;;;;2.30;0.63;;;;;;;17.47;100.00;98103.75;5110867;28;20035;-72
2022/06/09 08:54:36;;;;;;;1.15;0.55;;;;;;;17.85;99.61;98097.91;5096574;28;20130;-71
2022/06/09 08:57:31;;;;;;;1.95;0.70;;;;;;;18.19;100.00;98097.84;5112627;28;20043;-72
2022/06/09 09:00:24;;;;;;;1.92;0.80;;;;;;;18.07;99.71;98103.50;5099648;28;20038;-72
2022/06/09 09:03:17;;;;;;;2.13;0.68;;;;;;;18.19;98.68;98108.47;5096980;28;20042;-72
2022/06/09 09:06:17;;;;;;;1.50;0.75;;;;;;;18.20;99.73;98100.34;5110917;28;20176;-71
2022/06/09 09:09:28;;;;;;;1.08;0.68;;;;;;;18.51;95.97;98098.72;5108670;28;20143;-72
2022/06/09 09:12:43;;;;;;;4.13;0.77;;;;;;;18.73;94.07;98088.34;5119860;28;20040;-71
2022/06/09 09:15:49;;;;;;;1.42;0.65;;;;;;;19.12;91.97;98093.75;5077046;28;20048;-73
2022/06/09 09:18:54;;;;;;;1.38;0.60;;;;;;;18.76;93.07;98100.41;5092226;28;20036;-73
2022/06/09 09:21:47;;;;;;;0.95;0.55;;;;;;;18.76;96.54;98084.50;5106406;28;20520;-72
2022/06/09 09:24:48;;;;;;;1.15;0.75;;;;;;;19.12;95.47;98096.41;5152751;27;20039;-71
2022/06/09 09:27:46;;;;;;;1.30;0.53;;;;;;;18.96;94.24;98098.16;5104686;28;20486;-73
2022/06/09 09:30:53;;;;;;;1.20;0.60;;;;;;;18.68;96.06;98103.94;5107390;28;20173;-71
2022/06/09 09:33:41;;;;;;;0.68;0.45;;;;;;;19.22;94.87;98110.28;5100049;28;20096;-72
2022/06/09 09:36:39;;;;;;;2.90;0.60;;;;;;;19.48;92.91;98105.59;5114481;28;20035;-72
2022/06/09 09:39:46;;;;;;;1.35;0.60;;;;;;;19.60;91.89;98106.00;5099656;28;20042;-72
2022/06/09 09:42:36;;;;;;;2.13;0.90;;;;;;;19.25;92.60;98095.81;5112252;28;20501;-72
2022/06/09 09:45:39;;;;;;;1.55;0.70;;;;;;;19.14;93.36;98105.03;5102132;28;20182;-71
2022/06/09 09:48:24;;;;;;;0.93;0.50;;;;;;;18.91;95.48;98103.16;5100031;28;20119;-72
2022/06/09 09:51:13;;;;;;;1.95;1.40;;;;;;;19.32;93.84;98105.53;5114355;28;20569;-72
2022/06/09 09:54:17;;;;;;;0.80;0.60;;;;;;;19.36;93.93;98107.84;5095262;28;20499;-71
2022/06/09 09:57:16;;;;;;;0.90;0.63;;;;;;;18.96;95.40;98106.13;5093504;28;20047;-71
2022/06/09 10:00:28;;;;;;;1.38;0.57;;;;;;;19.18;95.00;98104.50;5122695;27;20464;-71
2022/06/09 10:10:13;;;;;;;4.43;0.82;;;;;;;19.39;94.33;98099.53;5150316;27;20035;-71
2022/06/09 10:12:59;;;;;;;2.08;0.70;;;;;;;19.16;93.90;98093.22;5134783;27;20126;-71
2022/06/09 10:15:44;;;;;;;2.55;0.65;;;;;;;19.34;93.41;98078.81;5123722;27;20480;-71
2022/06/09 10:18:29;;;;;;;2.30;0.95;;;;;;;19.32;92.32;98083.50;5150019;27;20110;-71
2022/06/09 10:21:15;;;;;;;0.75;0.60;;;;;;;18.98;95.54;98080.19;5150911;27;20046;-71
2022/06/09 10:24:07;;;;;;;0.98;0.60;;;;;;;19.32;93.93;98081.63;5121057;27;20050;-71
2022/06/09 10:26:56;;;;;;;0.82;0.60;;;;;;;18.84;96.17;98087.94;5150301;27;20069;-70
2022/06/09 10:29:56;;;;;;;1.45;0.50;;;;;;;19.00;95.51;98088.00;5135078;27;20051;-71
2022/06/09 10:32:53;;;;;;;0.68;0.47;;;;;;;18.84;97.17;98090.59;5117485;27;20035;-70
2022/06/09 10:35:54;;;;;;;1.67;0.80;;;;;;;18.69;96.58;98094.97;5112445;28;20047;-70
2022/06/09 10:38:47;;;;;;;1.13;0.50;;;;;;;19.02;96.92;98091.28;5137298;27;20049;-70
2022/06/09 10:41:40;;;;;;;1.55;0.40;;;;;;;19.54;92.95;98096.91;5132792;27;20035;-72
2022/06/09 10:44:38;;;;;;;1.60;0.50;;;;;;;19.91;90.83;98095.22;5144910;27;20038;-71
2022/06/09 10:57:31;;;;;;;1.23;0.70;;;;;;;19.15;95.13;98098.69;5130829;27;20095;-75
2022/06/09 11:00:22;;;;;;;2.28;0.60;;;;;;;19.63;93.14;98100.31;5143470;27;20039;-69
2022/06/09 11:03:29;;;;;;;0.95;0.68;;;;;;;19.26;93.17;98102.78;5144888;27;20107;-68
2022/06/09 11:06:54;;;;;;;2.13;0.80;;;;;;;18.94;94.57;98103.63;5144022;27;20046;-68
2022/06/09 11:09:50;;;;;;;6.55;1.98;;;;;;;19.48;100.00;98102.94;5146317;27;20042;-70
2022/06/09 11:13:02;;;;;;;11.23;2.58;;;;;;;19.55;95.56;98107.34;5141727;27;20420;-72
2022/06/09 11:15:57;;;;;;;7.03;2.03;;;;;;;19.77;98.03;98104.81;5137140;27;20550;-76
2022/06/09 11:18:57;;;;;;;2.38;1.05;;;;;;;18.80;97.45;98107.84;5122814;27;20043;-72
2022/06/09 11:22:01;;;;;;;2.45;1.00;;;;;;;18.89;100.00;98098.03;5132560;27;20118;-74
2022/06/09 11:24:56;;;;;;;1.75;1.00;;;;;;;19.15;99.91;98101.34;5138117;27;20128;-72
2022/06/09 11:27:56;;;;;;;2.88;1.10;;;;;;;19.69;97.91;98103.09;5139930;27;20039;-74
2022/06/09 11:31:05;;;;;;;2.55;1.20;;;;;;;19.47;94.49;98104.75;5129711;27;20436;-73
2022/06/09 11:34:16;;;;;;;2.55;1.00;;;;;;;19.84;94.72;98107.59;5101743;27;20047;-76
2022/06/09 11:37:23;;;;;;;2.45;1.10;;;;;;;20.12;93.37;98104.34;5093721;27;20031;-75
2022/06/09 11:40:40;;;;;;;2.70;1.00;;;;;;;20.85;87.22;98107.25;5118661;27;20039;-73
2022/06/09 11:43:44;;;;;;;2.45;1.05;;;;;;;21.09;84.94;98099.94;5119639;27;20474;-74
2022/06/09 11:46:35;;;;;;;1.27;0.90;;;;;;;21.31;85.09;98097.28;5125864;27;20449;-76
2022/06/09 11:49:29;;;;;;;1.90;0.80;;;;;;;21.96;82.07;98091.84;5119763;27;20035;-76
2022/06/09 11:52:23;;;;;;;1.20;0.88;;;;;;;21.16;84.50;98090.19;5119710;27;20099;-74
2022/06/09 11:55:57;;;;;;;1.45;0.90;;;;;;;21.28;84.11;98088.66;5106233;27;20382;-72
2022/06/09 11:58:37;;;;;;;1.27;0.85;;;;;;;21.22;87.18;98088.59;5119664;27;20111;-73
2022/06/09 12:01:28;;;;;;;2.00;0.90;;;;;;;20.36;86.81;98077.63;5104933;27;20054;-73
2022/06/09 12:04:50;;;;;;;1.02;0.75;;;;;;;20.03;90.39;98076.19;5134891;27;20039;-73
2022/06/09 12:07:43;;;;;;;;;;;;;;;20.39;88.48;98078.09;5115356;27;20482;-68
2022/06/09 12:10:39;;;;;;;1.38;0.95;;;;;;;20.13;88.45;98082.06;5092781;28;19919;-70
2022/06/09 12:13:33;;;;;;;1.48;1.02;;;;;;;20.68;86.87;98083.53;5121608;27;20381;-68
2022/06/09 12:16:29;;;;;;;2.38;0.98;;;;;;;20.55;85.84;98090.34;5133633;27;20053;-69
2022/06/09 12:19:14;;;;;;;3.90;0.98;;;;;;;20.65;85.61;98089.22;5133491;27;20039;-66
2022/06/09 12:22:37;;;;;;;1.23;0.80;;;;;;;21.13;83.94;98082.59;5133279;27;20130;-71
2022/06/09 12:25:33;;;;;;;3.33;0.70;;;;;;;21.24;84.87;98082.06;5100591;27;20465;-65
2022/06/09 12:28:58;;;;;;;2.78;0.85;;;;;;;20.99;85.50;98089.63;5131165;27;20042;-66
2022/06/09 12:32:08;;;;;;;1.77;0.90;;;;;;;21.29;86.16;98090.31;5131971;27;20437;-64
2022/06/09 12:34:57;;;;;;;2.70;0.90;;;;;;;21.35;82.33;98082.56;5123869;27;20031;-67
2022/06/09 12:37:52;;;;;;;3.58;1.10;;;;;;;21.47;84.16;98083.69;5125149;27;20088;-65
2022/06/09 12:40:44;;;;;;;2.55;0.98;;;;;;;20.80;85.21;98081.19;5133209;27;20091;-67
2022/06/09 12:43:42;;;;;;;1.25;1.05;;;;;;;20.22;88.34;98076.66;5114587;27;20611;-68
2022/06/09 12:46:30;;;;;;;1.10;0.77;;;;;;;19.98;90.25;98079.34;5117401;27;20062;-64
2022/06/09 12:49:18;;;;;;;2.20;1.20;;;;;;;20.16;89.94;98073.72;5105854;27;20039;-66
2022/06/09 12:52:05;;;;;;;2.88;1.02;;;;;;;19.80;89.61;98085.03;5132545;27;20036;-66
2022/06/09 12:55:02;;;;;;;1.80;1.20;;;;;;;19.52;91.01;98086.44;5133208;27;20037;-65
2022/06/09 12:57:51;;;;;;;2.33;1.10;;;;;;;19.44;93.17;98078.56;5128067;27;20036;-66
2022/06/09 13:00:38;;;;;;;2.03;0.90;;;;;;;19.74;92.03;98094.56;5130433;27;20047;-68
2022/06/09 13:03:25;;;;;;;3.20;1.02;;;;;;;19.76;91.17;98097.03;5119948;27;20043;-66
2022/06/09 13:06:26;;;;;;;2.85;1.20;;;;;;;19.41;93.08;98103.66;5113632;27;20043;-65
2022/06/09 13:09:28;;;;;;;1.42;0.80;;;;;;;19.65;93.23;98093.81;5130119;27;20144;-66
2022/06/09 13:15:43;;;;;;;1.30;0.75;;;;;;;19.98;90.64;98099.78;5126051;27;20428;-68
2022/06/09 13:18:35;;;;;;;1.80;0.95;;;;;;;21.08;84.18;98099.13;5126394;27;20831;-67
2022/06/09 13:21:25;;;;;;;1.27;0.70;;;;;;;20.37;89.36;98092.59;5129361;27;20039;-66
2022/06/09 13:24:37;;;;;;;1.65;0.73;;;;;;;20.34;88.76;98099.09;5132783;27;20440;-67
2022/06/09 13:27:26;;;;;;;1.40;0.75;;;;;;;20.87;86.73;98105.22;5132995;27;20050;-68
2022/06/09 13:30:45;;;;;;;1.67;0.80;;;;;;;21.33;84.02;98097.91;5117389;27;20058;-69
2022/06/09 13:33:33;;;;;;;1.90;0.82;;;;;;;21.71;81.12;98105.59;5104724;27;20083;-74
2022/06/09 13:36:25;;;;;;;3.00;0.90;;;;;;;21.88;79.65;98105.31;5115875;27;20031;-73
2022/06/09 13:39:32;;;;;;;1.37;0.73;;;;;;;21.24;80.50;98115.84;5129350;27;20042;-70
2022/06/09 13:42:27;;;;;;;3.45;1.05;;;;;;;20.47;85.39;98118.88;5117445;27;20321;-69
2022/06/09 13:45:40;;;;;;;1.42;0.77;;;;;;;20.59;85.10;98117.41;5116549;27;20042;-72